createdAt,value
2022-11-20T00:02:16.935Z,16.92
2022-11-20T00:04:49.891Z,13.57
2022-11-20T00:07:22.910Z,14.85
2022-11-20T00:09:55.674Z,14.77
2022-11-20T00:12:29.917Z,15.25
2022-11-20T00:15:02.725Z,13.80
2022-11-20T00:17:35.455Z,14.45
2022-11-20T00:20:09.002Z,13.18
2022-11-20T00:22:41.966Z,15.13
2022-11-20T00:27:48.741Z,10.60
2022-11-20T00:30:21.666Z,13.00
2022-11-20T00:35:27.341Z,14.02
2022-11-20T00:38:00.165Z,13.27
2022-11-20T00:40:33.143Z,15.27
2022-11-20T00:45:41.462Z,13.68
2022-11-20T00:48:14.242Z,13.20
2022-11-20T00:50:47.206Z,13.85
2022-11-20T00:55:58.039Z,14.40
2022-11-20T00:58:34.800Z,14.15
2022-11-20T01:01:09.449Z,14.60
2022-11-20T01:03:44.022Z,15.23
2022-11-20T01:06:18.887Z,14.35
2022-11-20T01:08:52.997Z,17.23
2022-11-20T01:11:27.902Z,12.93
2022-11-20T01:14:03.124Z,13.18
2022-11-20T01:16:38.452Z,13.95
2022-11-20T01:19:17.524Z,13.68
2022-11-20T01:21:53.327Z,13.77
2022-11-20T01:24:26.101Z,13.73
2022-11-20T01:26:59.253Z,13.23
2022-11-20T01:29:33.457Z,12.55
2022-11-20T01:32:06.534Z,11.60
2022-11-20T01:34:39.315Z,14.93
2022-11-20T01:37:12.054Z,13.43
2022-11-20T01:39:45.222Z,14.15
2022-11-20T01:42:35.776Z,13.20
2022-11-20T01:45:41.687Z,12.70
2022-11-20T01:48:16.197Z,14.18
2022-11-20T01:50:49.133Z,13.18
2022-11-20T01:56:01.567Z,14.25
2022-11-20T01:58:40.116Z,14.52
2022-11-20T02:01:13.583Z,15.25
2022-11-20T02:03:49.248Z,15.07
2022-11-20T02:06:26.494Z,11.75
2022-11-20T02:08:59.385Z,13.35
2022-11-20T02:11:32.605Z,14.30
2022-11-20T02:14:04.968Z,13.63
2022-11-20T02:16:40.521Z,12.75
2022-11-20T02:19:24.105Z,11.48
2022-11-20T02:22:04.082Z,12.13
2022-11-20T02:24:38.379Z,14.32
2022-11-20T02:27:13.907Z,11.40
2022-11-20T02:29:51.547Z,15.48
2022-11-20T02:32:27.948Z,11.43
2022-11-20T02:35:08.214Z,12.60
2022-11-20T02:37:42.389Z,12.07
2022-11-20T02:40:17.301Z,13.65
2022-11-20T02:42:53.798Z,15.20
2022-11-20T02:45:26.985Z,12.82
2022-11-20T02:47:59.720Z,13.50
2022-11-20T02:50:32.750Z,13.32
2022-11-20T02:53:05.465Z,14.85
2022-11-20T02:55:39.629Z,12.05
2022-11-20T02:58:12.791Z,13.55
2022-11-20T03:00:47.605Z,12.80
2022-11-20T03:03:20.411Z,13.10
2022-11-20T03:05:53.167Z,12.63
2022-11-20T03:11:04.557Z,15.02
2022-11-20T03:13:37.721Z,13.90
2022-11-20T03:16:12.511Z,12.25
2022-11-20T03:18:45.673Z,12.77
2022-11-20T03:21:18.571Z,12.90
2022-11-20T03:23:51.529Z,13.48
2022-11-20T03:26:27.620Z,14.45
2022-11-20T03:29:02.330Z,12.75
2022-11-20T03:31:37.152Z,16.02
2022-11-20T03:34:11.745Z,14.88
2022-11-20T03:36:45.010Z,12.27
2022-11-20T03:39:18.855Z,14.90
2022-11-20T03:41:53.135Z,13.38
2022-11-20T03:44:26.057Z,15.00
2022-11-20T03:49:31.390Z,12.65
2022-11-20T03:52:04.080Z,12.73
2022-11-20T03:54:37.073Z,13.05
2022-11-20T03:59:43.948Z,13.32
2022-11-20T04:04:49.810Z,13.85
2022-11-20T04:07:22.531Z,13.50
2022-11-20T04:09:55.284Z,13.50
2022-11-20T04:12:29.333Z,14.65
2022-11-20T04:15:02.898Z,13.32
2022-11-20T04:17:35.860Z,15.20
2022-11-20T04:22:41.839Z,13.77
2022-11-20T04:27:48.974Z,13.10
2022-11-20T04:30:21.756Z,14.52
2022-11-20T04:32:54.905Z,14.10
2022-11-20T04:35:27.675Z,11.45
2022-11-20T04:38:00.392Z,12.20
2022-11-20T04:40:33.295Z,13.60
2022-11-20T04:45:40.071Z,14.32
2022-11-20T04:48:12.869Z,12.60
2022-11-20T04:50:45.668Z,14.35
2022-11-20T04:53:18.482Z,11.10
2022-11-20T04:55:51.714Z,14.93
2022-11-20T04:58:25.908Z,12.73
2022-11-20T05:01:04.288Z,13.60
2022-11-20T05:03:42.123Z,13.25
2022-11-20T05:06:16.962Z,15.13
2022-11-20T05:08:50.075Z,13.95
2022-11-20T05:11:23.590Z,14.38
2022-11-20T05:14:01.051Z,15.40
2022-11-20T05:16:36.478Z,14.63
2022-11-20T05:19:09.574Z,14.40
2022-11-20T05:21:42.290Z,12.82
2022-11-20T05:24:15.060Z,13.73
2022-11-20T05:29:22.183Z,14.77
2022-11-20T05:31:55.017Z,13.68
2022-11-20T05:34:27.769Z,15.30
2022-11-20T05:37:00.554Z,15.20
2022-11-20T05:39:33.528Z,12.88
2022-11-20T05:44:58.118Z,12.63
2022-11-20T05:47:35.979Z,12.85
2022-11-20T05:50:09.297Z,13.15
2022-11-20T05:52:42.065Z,13.93
2022-11-20T05:55:14.984Z,15.52
2022-11-20T06:00:22.097Z,11.80
2022-11-20T06:02:56.027Z,13.73
2022-11-20T06:05:28.815Z,14.15
2022-11-20T06:08:02.643Z,12.85
2022-11-20T06:10:35.561Z,12.75
2022-11-20T06:13:08.508Z,13.88
2022-11-20T06:15:42.614Z,12.77
2022-11-20T06:18:15.570Z,13.18
2022-11-20T06:23:21.043Z,14.98
2022-11-20T06:25:53.771Z,13.82
2022-11-20T06:28:26.743Z,16.00
2022-11-20T06:33:34.646Z,16.48
2022-11-20T06:36:10.896Z,14.75
2022-11-20T06:38:44.901Z,13.85
2022-11-20T06:41:21.903Z,16.42
2022-11-20T06:43:54.873Z,13.95
2022-11-20T06:46:32.076Z,15.13
2022-11-20T06:49:05.804Z,14.32
2022-11-20T06:51:39.380Z,16.08
2022-11-20T06:54:12.469Z,15.13
2022-11-20T06:56:49.641Z,13.63
2022-11-20T06:59:22.882Z,14.57
2022-11-20T07:01:57.229Z,13.55
2022-11-20T07:04:30.329Z,16.17
2022-11-20T07:07:03.403Z,12.93
2022-11-20T07:09:37.593Z,19.00
2022-11-20T07:12:10.719Z,15.93
2022-11-20T07:14:46.371Z,13.85
2022-11-20T07:17:20.753Z,16.60
2022-11-20T07:19:53.727Z,15.75
2022-11-20T07:22:27.615Z,13.35
2022-11-20T07:25:00.897Z,15.52
2022-11-20T07:27:36.523Z,13.95
2022-11-20T07:30:10.291Z,15.75
2022-11-20T07:32:52.597Z,16.08
2022-11-20T07:35:26.082Z,15.70
2022-11-20T07:37:59.046Z,14.48
2022-11-20T07:43:04.886Z,15.20
2022-11-20T07:48:11.811Z,15.82
2022-11-20T07:50:45.838Z,16.98
2022-11-20T07:53:21.759Z,16.38
2022-11-20T07:55:54.695Z,16.65
2022-11-20T08:01:00.354Z,17.80
2022-11-20T08:03:39.343Z,18.02
2022-11-20T08:06:12.430Z,17.23
2022-11-20T08:08:45.269Z,17.88
2022-11-20T08:11:35.652Z,15.32
2022-11-20T08:14:14.217Z,17.77
2022-11-20T08:16:48.899Z,19.60
2022-11-20T08:19:23.292Z,16.58
2022-11-20T08:21:57.431Z,18.40
2022-11-20T08:24:30.459Z,18.45
2022-11-20T08:29:36.923Z,17.98
2022-11-20T08:32:12.453Z,17.38
2022-11-20T08:34:47.428Z,18.77
2022-11-20T08:37:20.594Z,20.27
2022-11-20T08:39:54.577Z,18.88
2022-11-20T08:42:27.421Z,16.98
2022-11-20T08:45:00.248Z,19.23
2022-11-20T08:50:11.082Z,17.60
2022-11-20T08:52:44.292Z,23.13
2022-11-20T08:55:19.795Z,21.60
2022-11-20T08:57:52.717Z,20.05
2022-11-20T09:00:25.627Z,21.35
2022-11-20T09:02:59.673Z,22.10
2022-11-20T09:05:34.415Z,20.08
2022-11-20T09:08:07.929Z,22.58
2022-11-20T09:10:41.662Z,21.08
2022-11-20T09:13:14.570Z,19.83
2022-11-20T09:18:20.613Z,25.30
2022-11-20T09:21:00.480Z,24.60
2022-11-20T09:23:38.147Z,24.77
2022-11-20T09:26:16.313Z,29.58
2022-11-20T09:28:55.372Z,25.35
2022-11-20T09:31:31.184Z,27.30
2022-11-20T09:34:05.073Z,26.95
2022-11-20T09:36:39.532Z,27.38
2022-11-20T09:39:14.394Z,34.78
2022-11-20T09:42:16.881Z,29.60
2022-11-20T09:45:12.628Z,30.27
2022-11-20T09:48:00.668Z,35.53
2022-11-20T09:50:38.642Z,32.97
2022-11-20T09:53:18.550Z,30.25
2022-11-20T09:55:51.746Z,30.55
2022-11-20T09:58:33.635Z,34.30
2022-11-20T10:01:14.108Z,39.20
2022-11-20T10:03:55.860Z,34.65
2022-11-20T10:06:33.159Z,38.25
2022-11-20T10:09:20.322Z,33.28
2022-11-20T10:12:07.875Z,42.00
2022-11-20T10:14:58.519Z,41.00
2022-11-20T10:17:56.779Z,38.05
2022-11-20T10:20:44.402Z,35.55
2022-11-20T10:23:38.951Z,34.13
2022-11-20T10:26:21.956Z,42.75
2022-11-20T10:29:11.215Z,37.63
2022-11-20T10:31:47.394Z,41.20
2022-11-20T10:34:26.602Z,37.38
2022-11-20T10:37:04.687Z,38.97
2022-11-20T10:39:44.429Z,43.88
2022-11-20T10:42:26.849Z,41.58
2022-11-20T10:45:13.398Z,42.78
2022-11-20T10:47:46.536Z,38.47
2022-11-20T10:50:24.201Z,41.83
2022-11-20T10:53:07.291Z,43.30
2022-11-20T10:55:45.727Z,41.95
2022-11-20T10:58:28.233Z,42.33
2022-11-20T11:01:06.280Z,38.17
2022-11-20T11:03:39.601Z,40.95
2022-11-20T11:06:19.445Z,44.45
2022-11-20T11:09:32.197Z,47.28
2022-11-20T11:12:09.763Z,43.33
2022-11-20T11:14:49.704Z,43.40
2022-11-20T11:17:29.349Z,44.05
2022-11-20T11:20:04.128Z,43.38
2022-11-20T11:22:46.963Z,48.30
2022-11-20T11:25:35.496Z,44.47
2022-11-20T11:28:23.057Z,46.55
2022-11-20T11:31:04.834Z,49.00
2022-11-20T11:33:40.263Z,49.72
2022-11-20T11:36:21.951Z,51.03
2022-11-20T11:38:55.687Z,51.40
2022-11-20T11:41:34.117Z,49.55
2022-11-20T11:44:37.366Z,52.53
2022-11-20T11:47:20.881Z,49.83
2022-11-20T11:50:03.436Z,48.65
2022-11-20T11:52:47.678Z,46.70
2022-11-20T11:55:31.282Z,52.33
2022-11-20T11:58:15.795Z,46.58
2022-11-20T12:00:56.972Z,46.85
2022-11-20T12:03:37.277Z,51.28
2022-11-20T12:06:14.725Z,48.95
2022-11-20T12:08:53.616Z,52.88
2022-11-20T12:11:35.237Z,53.50
2022-11-20T12:14:17.422Z,52.40
2022-11-20T12:16:50.534Z,53.55
2022-11-20T12:19:25.014Z,53.00
2022-11-20T12:22:06.432Z,49.92
2022-11-20T12:24:47.844Z,47.83
2022-11-20T12:27:46.202Z,53.60
2022-11-20T12:30:23.508Z,55.22
2022-11-20T12:33:28.090Z,54.97
2022-11-20T12:36:12.184Z,54.38
2022-11-20T12:38:56.928Z,54.83
2022-11-20T12:42:06.734Z,57.40
2022-11-20T12:45:10.273Z,53.28
2022-11-20T12:48:00.820Z,52.33
2022-11-20T12:51:13.444Z,57.45
2022-11-20T12:53:53.831Z,49.65
2022-11-20T12:56:35.389Z,53.53
2022-11-20T12:59:25.584Z,55.10
2022-11-20T13:02:05.186Z,52.60
2022-11-20T13:04:58.137Z,57.88
2022-11-20T13:07:32.610Z,56.58
2022-11-20T13:10:17.739Z,52.20
2022-11-20T13:12:58.191Z,58.17
2022-11-20T13:15:46.644Z,58.03
2022-11-20T13:18:22.936Z,56.30
2022-11-20T13:20:55.739Z,55.97
2022-11-20T13:23:30.072Z,60.47
2022-11-20T13:26:17.124Z,56.15
2022-11-20T13:29:02.144Z,51.53
2022-11-20T13:31:36.976Z,54.20
2022-11-20T13:34:14.414Z,53.13
2022-11-20T13:36:54.897Z,57.53
2022-11-20T13:39:29.526Z,54.80
2022-11-20T13:42:22.759Z,56.33
2022-11-20T13:44:57.293Z,56.58
2022-11-20T13:47:31.233Z,59.42
2022-11-20T13:50:06.564Z,60.58
2022-11-20T13:52:48.691Z,55.53
2022-11-20T13:55:28.500Z,59.88
2022-11-20T13:58:21.471Z,57.25
2022-11-20T14:01:02.944Z,61.50
2022-11-20T14:04:05.709Z,55.70
2022-11-20T14:09:03.342Z,64.00
2022-11-20T14:11:36.208Z,69.13
2022-11-20T14:14:18.485Z,55.05
2022-11-20T14:16:51.954Z,62.80
2022-11-20T14:19:31.360Z,51.58
2022-11-20T14:22:22.152Z,58.88
2022-11-20T14:25:08.314Z,57.72
2022-11-20T14:27:42.975Z,55.03
2022-11-20T14:30:20.398Z,58.13
2022-11-20T14:32:56.521Z,57.50
2022-11-20T14:35:31.753Z,60.28
2022-11-20T14:38:05.406Z,54.92
2022-11-20T14:40:38.511Z,54.38
2022-11-20T14:43:20.682Z,52.65
2022-11-20T14:46:03.230Z,59.53
2022-11-20T14:48:41.376Z,61.47
2022-11-20T14:51:24.992Z,55.35
2022-11-20T14:53:58.004Z,54.83
2022-11-20T14:59:03.767Z,51.10
2022-11-20T15:04:12.711Z,52.38
2022-11-20T15:06:52.322Z,51.67
2022-11-20T15:09:25.393Z,56.03
2022-11-20T15:14:34.977Z,59.78
2022-11-20T15:17:13.648Z,47.92
2022-11-20T15:19:46.723Z,46.00
2022-11-20T15:24:53.963Z,42.33
2022-11-20T15:27:26.775Z,47.03
2022-11-20T15:29:59.623Z,46.05
2022-11-20T15:32:33.884Z,44.50
2022-11-20T15:35:07.599Z,49.85
2022-11-20T15:37:41.097Z,45.20
2022-11-20T15:40:14.213Z,43.88
2022-11-20T15:43:00.841Z,43.88
2022-11-20T15:45:40.031Z,44.53
2022-11-20T15:48:18.431Z,41.85
2022-11-20T15:50:58.396Z,41.03
2022-11-20T15:53:31.791Z,42.85
2022-11-20T15:56:04.834Z,41.30
2022-11-20T16:01:12.674Z,40.75
2022-11-20T16:03:49.283Z,40.92
2022-11-20T16:06:22.198Z,41.08
2022-11-20T16:11:30.064Z,41.10
2022-11-20T16:14:22.862Z,40.25
2022-11-20T16:16:55.941Z,38.67
2022-11-20T16:19:30.021Z,42.20
2022-11-20T16:22:03.398Z,40.13
2022-11-20T16:24:36.518Z,41.90
2022-11-20T16:27:13.240Z,38.58
2022-11-20T16:29:46.699Z,43.45
2022-11-20T16:32:19.814Z,36.00
2022-11-20T16:34:54.489Z,46.00
2022-11-20T16:37:30.223Z,38.80
2022-11-20T16:40:12.202Z,36.10
2022-11-20T16:42:45.594Z,40.13
2022-11-20T16:45:25.301Z,36.25
2022-11-20T16:47:59.966Z,38.05
2022-11-20T16:50:34.446Z,40.45
2022-11-20T16:53:09.020Z,38.15
2022-11-20T16:55:44.375Z,36.05
2022-11-20T16:58:17.864Z,36.90
2022-11-20T17:00:51.966Z,33.33
2022-11-20T17:03:24.894Z,37.53
2022-11-20T17:05:59.334Z,31.63
2022-11-20T17:08:36.205Z,36.63
2022-11-20T17:11:10.649Z,34.50
2022-11-20T17:13:45.138Z,35.63
2022-11-20T17:16:20.551Z,33.28
2022-11-20T17:18:59.751Z,31.30
2022-11-20T17:21:41.340Z,32.72
2022-11-20T17:24:18.211Z,32.50
2022-11-20T17:26:51.346Z,31.80
2022-11-20T17:29:28.043Z,32.47
2022-11-20T17:32:01.273Z,32.50
2022-11-20T17:37:11.206Z,33.40
2022-11-20T17:39:44.867Z,30.63
2022-11-20T17:42:36.646Z,30.88
2022-11-20T17:45:09.861Z,29.77
2022-11-20T17:47:44.980Z,27.50
2022-11-20T17:50:22.466Z,27.92
2022-11-20T17:53:14.794Z,26.75
2022-11-20T17:56:13.772Z,28.83
2022-11-20T17:58:46.997Z,28.65
2022-11-20T18:01:20.933Z,28.75
2022-11-20T18:03:56.717Z,27.38
2022-11-20T18:06:35.609Z,26.85
2022-11-20T18:09:10.502Z,25.20
2022-11-20T18:11:44.745Z,28.10
2022-11-20T18:14:32.452Z,26.30
2022-11-20T18:17:07.029Z,27.08
2022-11-20T18:19:51.544Z,26.10
2022-11-20T18:22:34.082Z,30.45
2022-11-20T18:25:09.422Z,27.55
2022-11-20T18:27:46.910Z,25.33
2022-11-20T18:30:29.259Z,26.70
2022-11-20T18:33:05.472Z,28.03
2022-11-20T18:35:43.315Z,24.27
2022-11-20T18:38:19.082Z,26.42
2022-11-20T18:40:59.623Z,25.02
2022-11-20T18:43:58.331Z,25.60
2022-11-20T18:46:31.478Z,28.30
2022-11-20T18:51:39.016Z,25.50
2022-11-20T18:54:12.904Z,23.92
2022-11-20T18:56:50.966Z,27.08
2022-11-20T18:59:23.968Z,25.63
2022-11-20T19:04:30.465Z,27.33
2022-11-20T19:07:03.611Z,26.67
2022-11-20T19:09:37.877Z,28.20
2022-11-20T19:12:13.557Z,26.75
2022-11-20T19:14:49.710Z,26.48
2022-11-20T19:17:24.593Z,27.63
2022-11-20T19:19:57.774Z,25.50
2022-11-20T19:25:08.493Z,27.35
2022-11-20T19:27:42.795Z,27.85
2022-11-20T19:30:20.614Z,25.75
2022-11-20T19:33:08.652Z,23.58
2022-11-20T19:35:42.421Z,21.58
2022-11-20T19:38:19.890Z,19.60
2022-11-20T19:40:53.151Z,25.45
2022-11-20T19:43:27.583Z,22.50
2022-11-20T19:46:00.858Z,21.98
2022-11-20T19:48:35.070Z,13.25
2022-11-20T19:51:13.895Z,22.77
2022-11-20T19:53:47.252Z,26.38
2022-11-20T19:56:23.567Z,14.55
2022-11-20T19:59:03.015Z,16.85
2022-11-20T20:01:40.596Z,15.38
2022-11-20T20:04:13.998Z,13.93
2022-11-20T20:06:47.348Z,14.70
2022-11-20T20:09:22.969Z,11.95
2022-11-20T20:12:00.687Z,14.45
2022-11-20T20:14:39.629Z,19.67
2022-11-20T20:17:14.080Z,15.32
2022-11-20T20:19:47.584Z,19.92
2022-11-20T20:22:25.965Z,20.35
2022-11-20T20:25:15.477Z,16.88
2022-11-20T20:27:51.046Z,20.55
2022-11-20T20:30:25.535Z,20.65
2022-11-20T20:32:58.722Z,17.13
2022-11-20T20:35:31.735Z,26.48
2022-11-20T20:40:38.469Z,19.30
2022-11-20T20:43:17.234Z,21.35
2022-11-20T20:45:52.562Z,19.48
2022-11-20T20:48:30.063Z,25.42
2022-11-20T20:51:03.666Z,19.27
2022-11-20T20:53:40.560Z,22.63
2022-11-20T20:56:13.713Z,17.52
2022-11-20T20:58:48.796Z,19.48
2022-11-20T21:01:28.536Z,17.15
2022-11-20T21:04:04.240Z,17.77
2022-11-20T21:06:37.204Z,10.40
2022-11-20T21:11:43.023Z,15.73
2022-11-20T21:14:16.523Z,18.00
2022-11-20T21:16:50.638Z,17.17
2022-11-20T21:19:23.480Z,19.17
2022-11-20T21:22:03.159Z,15.57
2022-11-20T21:24:37.410Z,14.63
2022-11-20T21:27:10.471Z,18.13
2022-11-20T21:32:17.395Z,14.67
2022-11-20T21:34:50.186Z,24.17
2022-11-20T21:37:22.781Z,26.15
2022-11-20T21:39:56.405Z,19.08
2022-11-20T21:42:29.315Z,13.75
2022-11-20T21:45:02.056Z,23.95
2022-11-20T21:47:36.094Z,16.83
2022-11-20T21:50:10.567Z,18.13
2022-11-20T21:52:43.324Z,15.30
2022-11-20T21:55:16.000Z,24.38
2022-11-20T21:57:48.756Z,13.48
2022-11-20T22:00:21.740Z,18.67
2022-11-20T22:05:28.324Z,17.58
2022-11-20T22:08:01.079Z,13.45
2022-11-20T22:10:34.396Z,17.60
2022-11-20T22:13:24.460Z,15.15
2022-11-20T22:16:02.352Z,16.40
2022-11-20T22:18:36.732Z,15.73
2022-11-20T22:21:09.609Z,12.45
2022-11-20T22:23:42.635Z,12.90
2022-11-20T22:28:49.604Z,12.73
2022-11-20T22:31:24.143Z,9.88
2022-11-20T22:33:59.979Z,9.27
2022-11-20T22:36:33.567Z,11.52
2022-11-20T22:39:07.393Z,10.68
2022-11-20T22:41:40.165Z,10.27
2022-11-20T22:44:14.323Z,7.18
2022-11-20T22:46:47.256Z,15.10
2022-11-20T22:49:21.570Z,9.55
2022-11-20T22:51:55.536Z,15.95
2022-11-20T22:54:28.350Z,12.05
2022-11-20T22:57:01.205Z,16.27
2022-11-20T22:59:33.869Z,17.95
2022-11-20T23:02:06.841Z,14.70
2022-11-20T23:04:40.923Z,11.55
2022-11-20T23:07:13.743Z,9.63
2022-11-20T23:09:46.478Z,10.05
2022-11-20T23:12:19.206Z,10.90
2022-11-20T23:14:51.812Z,10.32
2022-11-20T23:17:24.605Z,13.63
2022-11-20T23:19:58.670Z,7.63
2022-11-20T23:22:33.098Z,4.45
2022-11-20T23:25:06.804Z,13.40
2022-11-20T23:27:39.550Z,6.57
2022-11-20T23:30:13.236Z,10.82
2022-11-20T23:32:46.064Z,13.27
2022-11-20T23:35:20.047Z,11.05
2022-11-20T23:37:52.963Z,14.38
2022-11-20T23:40:25.753Z,10.52
2022-11-20T23:43:17.175Z,13.82
2022-11-20T23:45:51.427Z,13.75
2022-11-20T23:48:25.966Z,10.90
2022-11-20T23:51:00.470Z,13.15
2022-11-20T23:53:33.656Z,13.75
2022-11-20T23:56:06.899Z,11.43
2022-11-20T23:58:40.067Z,16.45
